.
WxDataArchive / Data Records for 2015-05-11
2015-05-10 May 2015 2015-05-12

Data Records for Monday, 11 May 2015

Time	Temp	Chill	HIndex	Humid	Dewpt	 Wind 	HiWind	WindDir	Rain 	Barom
-----	----	-----	------	-----	-----	------	------	-------	-----	-----
00:00	68.1	68.1	68.1	94	66.3	0	0	---	0.00	29.953 
00:05	68.1	68.1	68.1	94	66.3	0	0	---	0.00	29.953 
00:10	68.1	68.1	68.1	94	66.3	0	0	---	0.00	29.953 
00:15	68.1	68.1	68.1	93	66.0	0	0	---	0.00	29.954 
00:20	67.9	67.9	67.9	93	65.8	0	0	---	0.00	29.954 
00:25	67.9	67.9	67.9	93	65.8	0	0	---	0.00	29.954 
00:30	67.8	67.8	67.8	94	66.0	0	0	---	0.00	29.957 
00:35	67.8	67.8	67.8	94	66.0	0	0	---	0.00	29.957 
00:40	67.8	67.8	67.8	94	66.0	0	0	---	0.00	29.957 
00:45	67.8	67.8	67.8	94	66.0	0	0	---	0.00	29.956 
00:50	67.6	67.6	67.6	94	65.8	0	0	---	0.00	29.956 
00:55	67.6	67.6	67.6	94	65.8	0	0	---	0.00	29.956 
01:00	67.6	67.6	67.6	94	65.8	0	0	---	0.00	29.958 
01:05	67.4	67.4	67.4	94	65.6	0	0	---	0.00	29.958 
01:10	67.4	67.4	67.4	94	65.6	0	0	---	0.00	29.958 
01:15	67.3	67.3	67.3	94	65.5	0	0	---	0.00	29.959 
01:20	67.3	67.3	67.3	94	65.5	0	0	---	0.00	29.959 
01:25	67.1	67.1	67.1	94	65.3	0	0	---	0.00	29.959 
01:30	67.1	67.1	67.1	94	65.3	0	0	---	0.00	29.957 
01:35	67.1	67.1	67.1	94	65.3	0	0	---	0.00	29.957 
01:40	67.1	67.1	67.1	94	65.3	0	1	90	0.00	29.957 
01:45	67.3	67.3	67.3	94	65.5	0	1	90	0.01	29.957 
01:50	67.3	67.3	67.3	94	65.5	0	3	90	0.00	29.957 
01:55	67.3	67.3	67.3	94	65.5	0	1	270	0.00	29.957 
02:00	67.3	67.3	67.3	94	65.5	0	0	---	0.00	29.954 
02:05	67.3	67.3	67.3	94	65.5	0	0	---	0.00	29.954 
02:10	67.3	67.3	67.3	94	65.5	0	0	---	0.00	29.954 
02:15	67.3	67.3	67.3	94	65.5	0	0	---	0.00	29.941 
02:20	67.3	67.3	67.3	94	65.5	0	0	---	0.00	29.941 
02:25	67.1	67.1	67.1	94	65.3	0	0	---	0.00	29.941 
02:30	67.1	67.1	67.1	94	65.3	0	0	---	0.00	29.937 
02:35	67.1	67.1	67.1	93	65.0	0	0	---	0.00	29.937 
02:40	67.1	67.1	67.1	93	65.0	0	0	---	0.00	29.937 
02:45	66.9	66.9	66.9	93	64.8	0	1	270	0.00	29.929 
02:50	66.9	66.9	66.9	93	64.8	0	2	270	0.00	29.929 
02:55	66.8	66.8	66.8	92	64.4	0	1	270	0.00	29.929 
03:00	66.8	66.8	66.8	92	64.4	0	0	---	0.00	29.921 
03:05	66.6	66.6	66.6	92	64.2	0	0	---	0.00	29.921 
03:10	66.6	66.6	66.6	91	63.9	0	0	---	0.00	29.921 
03:15	66.4	66.4	66.4	90	63.4	0	1	270	0.00	29.921 
03:20	66.3	66.3	66.3	90	63.3	0	0	---	0.00	29.921 
03:25	66.1	66.1	66.1	89	62.8	0	1	270	0.00	29.921 
03:30	66.0	66.0	66.0	89	62.7	0	0	---	0.00	29.919 
03:35	65.8	65.8	65.8	88	62.1	0	0	---	0.00	29.919 
03:40	65.6	65.6	65.6	87	61.6	0	0	---	0.00	29.919 
03:45	65.5	65.5	65.5	86	61.2	0	0	---	0.00	29.922 
03:50	65.5	65.5	65.5	86	61.2	0	1	270	0.00	29.922 
03:55	65.3	65.3	65.3	85	60.7	0	1	270	0.00	29.922 
04:00	65.3	65.3	65.3	84	60.3	0	0	---	0.00	29.911 
04:05	65.3	65.3	65.3	84	60.3	0	0	---	0.00	29.911 
04:10	65.3	65.3	65.3	84	60.3	0	0	---	0.00	29.911 
04:15	65.2	65.2	65.2	84	60.2	0	1	270	0.00	29.904 
04:20	65.2	65.2	65.2	84	60.2	0	0	---	0.00	29.904 
04:25	65.2	65.2	65.2	84	60.2	0	1	270	0.00	29.904 
04:30	65.2	65.2	65.2	84	60.2	0	0	---	0.00	29.906 
04:35	65.2	65.2	65.2	84	60.2	0	0	---	0.00	29.906 
04:40	65.0	65.0	65.0	84	60.0	0	0	---	0.00	29.906 
04:45	65.0	65.0	65.0	84	60.0	0	1	270	0.00	29.903 
04:50	65.0	65.0	65.0	84	60.0	0	1	270	0.00	29.903 
04:55	65.0	65.0	65.0	84	60.0	0	0	---	0.00	29.903 
05:00	64.8	64.8	64.8	84	59.8	0	0	---	0.00	29.895 
05:05	64.8	64.8	64.8	84	59.8	0	0	---	0.00	29.895 
05:10	64.8	64.8	64.8	84	59.8	0	0	---	0.00	29.895 
05:15	64.7	64.7	64.7	84	59.7	0	0	---	0.00	29.896 
05:20	64.5	64.5	64.5	85	59.9	0	0	---	0.00	29.896 
05:25	64.5	64.5	64.5	85	59.9	0	0	---	0.00	29.896 
05:30	64.3	64.3	64.3	85	59.7	0	0	---	0.00	29.895 
05:35	64.3	64.3	64.3	85	59.7	0	0	---	0.00	29.895 
05:40	64.2	64.2	64.2	85	59.6	0	0	---	0.00	29.895 
05:45	64.0	64.0	64.0	85	59.4	0	0	---	0.00	29.894 
05:50	64.0	64.0	64.0	86	59.7	0	0	---	0.00	29.894 
05:55	63.9	63.9	63.9	86	59.6	0	0	---	0.00	29.894 
06:00	63.5	63.5	63.5	86	59.2	0	0	---	0.00	29.897 
06:05	63.4	63.4	63.4	86	59.1	0	0	---	0.00	29.897 
06:10	63.2	63.2	63.2	86	58.9	0	0	---	0.00	29.897 
06:15	63.1	63.1	63.1	87	59.2	0	0	---	0.00	29.897 
06:20	62.7	62.7	62.7	88	59.1	0	0	---	0.00	29.897 
06:25	62.4	62.4	62.4	88	58.8	0	0	---	0.00	29.897 
06:30	62.1	62.1	62.1	88	58.5	0	0	---	0.00	29.906 
06:35	62.0	62.0	62.0	88	58.4	0	0	---	0.00	29.906 
06:40	61.8	61.8	61.8	89	58.5	0	0	---	0.00	29.906 
06:45	61.6	61.6	61.6	89	58.3	0	0	---	0.00	29.909 
06:50	61.5	61.5	61.5	90	58.5	0	0	---	0.00	29.909 
06:55	61.3	61.3	61.3	90	58.3	0	0	---	0.00	29.909 
07:00	61.2	61.2	61.2	90	58.2	0	0	---	0.00	29.912 
07:05	61.2	61.2	61.2	90	58.2	0	0	---	0.00	29.912 
07:10	61.2	61.2	61.2	91	58.5	0	0	---	0.00	29.912 
07:15	61.3	61.3	61.3	91	58.6	0	0	---	0.00	29.921 
07:20	61.6	61.6	61.6	92	59.2	0	0	---	0.00	29.921 
07:25	62.0	62.0	62.0	92	59.6	0	0	---	0.00	29.921 
07:30	62.1	62.1	62.1	92	59.7	0	0	---	0.00	29.922 
07:35	62.4	62.4	62.4	92	60.0	0	0	---	0.00	29.922 
07:40	62.9	62.9	62.9	92	60.5	0	1	270	0.00	29.922 
07:45	63.5	63.5	63.5	91	60.8	0	0	---	0.00	29.925 
07:50	64.3	64.3	64.3	90	61.3	0	1	270	0.00	29.925 
07:55	65.0	65.0	65.0	88	61.4	0	2	270	0.00	29.925 
08:00	65.5	65.5	65.5	87	61.5	0	1	270	0.00	29.926 
08:05	66.0	66.0	66.0	86	61.7	0	2	270	0.00	29.926 
08:10	66.4	66.4	66.4	84	61.4	0	2	270	0.00	29.926 
08:15	67.3	67.3	67.3	83	62.0	0	0	---	0.00	29.920 
08:20	67.9	67.9	67.9	82	62.2	0	0	---	0.00	29.920 
08:25	68.6	68.6	68.6	79	61.8	0	0	---	0.00	29.920 
08:30	69.3	69.3	69.3	77	61.8	0	1	270	0.00	29.909 
08:35	69.9	69.9	69.9	76	62.0	0	0	---	0.00	29.909 
08:40	70.6	70.6	70.6	75	62.3	0	1	270	0.00	29.909 
08:45	70.9	70.9	70.9	73	61.8	0	2	270	0.00	29.909 
08:50	70.9	70.9	70.9	74	62.2	0	1	270	0.00	29.909 
08:55	70.4	70.4	70.4	74	61.7	0	1	270	0.00	29.909 
09:00	70.1	70.1	70.1	76	62.2	0	1	270	0.00	29.910 
09:05	69.8	69.8	69.8	77	62.3	0	1	270	0.00	29.910 
09:10	69.4	69.4	69.4	77	61.9	0	1	270	0.00	29.910 
09:15	69.3	69.3	69.3	77	61.8	0	1	270	0.00	29.911 
09:20	69.1	69.1	69.1	77	61.6	0	1	270	0.00	29.911 
09:25	69.1	69.1	69.1	78	61.9	0	1	270	0.00	29.911 
09:30	69.1	69.1	69.1	79	62.3	0	0	---	0.00	29.921 
09:35	69.1	69.1	69.1	80	62.7	0	0	---	0.00	29.921 
09:40	68.9	68.9	68.9	79	62.1	0	1	270	0.00	29.921 
09:45	68.9	68.9	68.9	79	62.1	0	2	270	0.00	29.913 
09:50	68.8	68.8	68.8	79	62.0	0	3	112	0.00	29.913 
09:55	68.8	68.8	68.8	79	62.0	0	2	112	0.00	29.913 
10:00	68.9	68.9	68.9	80	62.5	0	2	112	0.00	29.913 
10:05	68.9	68.9	68.9	80	62.5	0	1	112	0.00	29.913 
10:10	69.1	69.1	69.1	80	62.7	0	1	112	0.00	29.913 
10:15	69.1	69.1	69.1	79	62.3	0	3	112	0.00	29.913 
10:20	69.1	69.1	69.1	79	62.3	1	4	0	0.00	29.913 
10:25	69.4	69.4	69.4	78	62.2	0	3	112	0.00	29.913 
10:30	69.4	69.4	69.4	77	61.9	0	2	112	0.00	29.911 
10:35	69.9	69.9	69.9	77	62.3	0	2	68	0.00	29.911 
10:40	70.8	70.8	70.8	75	62.5	1	4	90	0.00	29.911 
10:45	71.6	71.6	71.6	73	62.5	1	6	90	0.00	29.908 
10:50	72.5	72.5	72.5	73	63.3	0	1	90	0.00	29.908 
10:55	73.2	73.2	73.2	71	63.2	1	4	90	0.00	29.908 
11:00	73.2	73.2	73.2	71	63.2	0	3	90	0.00	29.912 
11:05	73.2	73.2	73.2	70	62.8	0	3	90	0.00	29.912 
11:10	73.5	73.5	73.5	69	62.7	1	6	90	0.00	29.912 
11:15	73.5	73.5	73.5	70	63.1	1	7	68	0.00	29.902 
11:20	73.3	73.3	73.3	69	62.5	1	5	90	0.00	29.902 
11:25	73.3	73.3	73.3	71	63.3	0	1	90	0.00	29.902 
11:30	73.5	73.5	73.5	71	63.5	0	3	90	0.00	29.894 
11:35	73.5	73.5	73.5	70	63.1	0	1	90	0.00	29.894 
11:40	73.5	73.5	73.5	69	62.7	0	3	68	0.00	29.894 
11:45	73.7	73.7	73.7	69	62.9	0	2	68	0.00	29.890 
11:50	74.0	74.0	74.0	69	63.2	0	2	68	0.00	29.890 
11:55	74.2	74.2	74.2	69	63.4	0	2	68	0.00	29.890 
12:00	74.6	74.6	74.6	69	63.7	0	2	68	0.00	29.884 
12:05	75.1	75.1	76.9	68	63.8	1	4	68	0.00	29.884 
12:10	75.4	75.4	77.2	68	64.1	0	2	68	0.00	29.884 
12:15	75.6	75.6	77.6	64	62.5	1	4	90	0.00	29.875 
12:20	75.6	75.6	77.6	63	62.1	1	3	90	0.00	29.875 
12:25	75.4	75.4	77.5	63	61.9	1	3	90	0.00	29.875 
12:30	75.4	75.4	77.5	63	61.9	1	3	90	0.00	29.871 
12:35	75.6	75.6	77.6	64	62.5	0	1	90	0.00	29.871 
12:40	75.8	75.8	77.7	64	62.7	1	3	90	0.00	29.871 
12:45	76.3	76.3	78.1	65	63.6	0	2	90	0.00	29.858 
12:50	77.0	77.0	78.8	64	63.9	0	3	90	0.00	29.858 
12:55	77.6	77.6	79.3	61	63.1	2	6	90	0.00	29.858 
13:00	77.7	77.7	79.4	61	63.2	2	5	112	0.00	29.844 
13:05	77.7	77.7	79.4	60	62.7	1	5	112	0.00	29.844 
13:10	77.9	77.9	79.6	60	62.9	0	3	112	0.00	29.844 
13:15	77.9	77.9	79.5	59	62.4	0	4	112	0.00	29.841 
13:20	77.0	77.0	78.8	61	62.5	1	5	292	0.00	29.841 
13:25	75.1	75.1	77.0	67	63.4	2	5	292	0.01	29.841 
13:30	71.6	71.6	71.6	76	63.6	2	6	270	0.20	29.858 
13:35	69.6	69.6	69.6	81	63.5	0	1	315	0.03	29.858 
13:40	68.8	68.8	68.8	85	64.1	0	0	---	0.01	29.858 
13:45	68.6	68.6	68.6	87	64.6	0	1	315	0.00	29.845 
13:50	68.4	68.4	68.4	88	64.7	0	2	315	0.00	29.845 
13:55	68.4	68.4	68.4	89	65.0	0	2	315	0.00	29.845 
14:00	67.9	67.9	67.9	90	64.9	0	2	315	0.00	29.847 
14:05	67.9	67.9	67.9	90	64.9	0	2	315	0.00	29.847 
14:10	67.9	67.9	67.9	91	65.2	0	1	315	0.00	29.847 
14:15	67.6	67.6	67.6	91	64.9	0	2	315	0.00	29.834 
14:20	68.1	68.1	68.1	92	65.7	0	0	---	0.00	29.834 
14:25	68.6	68.6	68.6	92	66.2	0	1	315	0.00	29.834 
14:30	69.1	69.1	69.1	92	66.7	0	1	315	0.00	29.829 
14:35	69.1	69.1	69.1	91	66.4	0	2	315	0.00	29.829 
14:40	69.6	69.6	69.6	92	67.2	0	1	315	0.00	29.829 
14:45	69.9	69.9	69.9	91	67.1	0	2	315	0.00	29.815 
14:50	69.9	69.9	69.9	91	67.1	0	1	315	0.00	29.815 
14:55	70.6	70.6	70.6	91	67.8	0	2	315	0.00	29.815 
15:00	71.5	71.5	71.5	89	68.1	0	2	202	0.00	29.810 
15:05	71.3	71.3	71.3	88	67.6	0	2	202	0.00	29.810 
15:10	71.1	71.1	71.1	87	67.0	0	1	202	0.00	29.810 
15:15	70.8	70.8	70.8	87	66.7	0	1	202	0.00	29.814 
15:20	70.6	70.6	70.6	87	66.5	0	0	---	0.00	29.814 
15:25	70.4	70.4	70.4	87	66.3	0	2	202	0.01	29.814 
15:30	70.3	70.3	70.3	88	66.6	0	1	202	0.01	29.805 
15:35	70.3	70.3	70.3	89	66.9	0	1	202	0.00	29.805 
15:40	70.4	70.4	70.4	89	67.0	0	0	---	0.00	29.805 
15:45	70.6	70.6	70.6	90	67.5	0	1	202	0.00	29.801 
15:50	70.8	70.8	70.8	90	67.7	0	1	202	0.00	29.801 
15:55	70.9	70.9	70.9	90	67.8	0	1	202	0.00	29.801 
16:00	70.9	70.9	70.9	89	67.5	0	2	202	0.00	29.788 
16:05	70.8	70.8	70.8	89	67.4	0	1	202	0.00	29.788 
16:10	70.8	70.8	70.8	89	67.4	0	0	---	0.00	29.788 
16:15	70.6	70.6	70.6	90	67.5	0	1	202	0.00	29.784 
16:20	70.8	70.8	70.8	90	67.7	0	1	202	0.00	29.784 
16:25	70.8	70.8	70.8	89	67.4	0	1	202	0.00	29.784 
16:30	70.8	70.8	70.8	89	67.4	0	2	202	0.00	29.784 
16:35	70.8	70.8	70.8	89	67.4	0	1	202	0.00	29.784 
16:40	70.9	70.9	70.9	89	67.5	0	1	202	0.00	29.784 
16:45	70.9	70.9	70.9	88	67.2	0	2	202	0.00	29.775 
16:50	71.3	71.3	71.3	88	67.6	0	2	202	0.00	29.775 
16:55	71.3	71.3	71.3	87	67.2	1	5	68	0.00	29.775 
17:00	71.6	71.6	71.6	86	67.2	0	3	68	0.00	29.757 
17:05	71.5	71.5	71.5	85	66.7	0	4	90	0.00	29.757 
17:10	71.3	71.3	71.3	85	66.5	0	3	90	0.03	29.757 
17:15	70.8	70.8	70.8	86	66.4	1	3	292	0.13	29.779 
17:20	69.4	69.4	69.4	87	65.4	1	4	270	0.00	29.779 
17:25	68.4	68.4	68.4	88	64.7	0	2	270	0.00	29.779 
17:30	67.9	67.9	67.9	89	64.5	0	3	270	0.00	29.786 
17:35	67.6	67.6	67.6	90	64.6	1	5	270	0.00	29.786 
17:40	67.6	67.6	67.6	90	64.6	1	3	270	0.00	29.786 
17:45	67.8	67.8	67.8	91	65.1	1	3	270	0.00	29.788 
17:50	67.8	67.8	67.8	91	65.1	1	4	270	0.00	29.788 
17:55	68.1	68.1	68.1	91	65.4	1	4	270	0.00	29.788 
18:00	68.6	68.6	68.6	91	65.9	1	3	270	0.00	29.788 
18:05	68.6	68.6	68.6	90	65.5	1	5	270	0.00	29.788 
18:10	68.3	68.3	68.3	88	64.6	1	7	270	0.00	29.788 
18:15	68.3	68.3	68.3	88	64.6	1	4	270	0.00	29.788 
18:20	68.3	68.3	68.3	87	64.3	1	2	270	0.00	29.788 
18:25	68.3	68.3	68.3	86	63.9	1	2	270	0.00	29.788 
18:30	68.3	68.3	68.3	85	63.6	0	1	270	0.00	29.791 
18:35	68.1	68.1	68.1	84	63.1	1	4	248	0.00	29.791 
18:40	67.9	67.9	67.9	83	62.5	0	4	248	0.00	29.791 
18:45	68.1	68.1	68.1	83	62.7	0	2	248	0.00	29.793 
18:50	68.1	68.1	68.1	82	62.4	0	4	248	0.00	29.793 
18:55	68.1	68.1	68.1	81	62.0	1	3	248	0.00	29.793 
19:00	68.3	68.3	68.3	80	61.9	1	3	248	0.00	29.800 
19:05	68.6	68.6	68.6	80	62.2	0	4	248	0.00	29.800 
19:10	68.8	68.8	68.8	79	62.0	1	5	248	0.00	29.800 
19:15	68.8	68.8	68.8	78	61.7	1	5	270	0.00	29.801 
19:20	68.8	68.8	68.8	78	61.7	1	5	0	0.00	29.801 
19:25	69.1	69.1	69.1	78	61.9	1	3	292	0.00	29.801 
19:30	69.3	69.3	69.3	78	62.1	1	4	292	0.00	29.798 
19:35	69.3	69.3	69.3	77	61.8	1	4	292	0.00	29.798 
19:40	69.3	69.3	69.3	77	61.8	1	4	292	0.00	29.798 
19:45	69.1	69.1	69.1	76	61.2	1	4	292	0.00	29.790 
19:50	69.1	69.1	69.1	76	61.2	1	4	270	0.00	29.790 
19:55	69.3	69.3	69.3	76	61.4	0	2	270	0.00	29.790 
20:00	69.1	69.1	69.1	76	61.2	0	3	270	0.00	29.800 
20:05	69.3	69.3	69.3	76	61.4	0	2	270	0.00	29.800 
20:10	69.4	69.4	69.4	75	61.1	0	2	270	0.00	29.800 
20:15	69.4	69.4	69.4	76	61.5	0	2	270	0.00	29.801 
20:20	69.3	69.3	69.3	76	61.4	0	1	270	0.00	29.801 
20:25	69.1	69.1	69.1	75	60.8	1	6	270	0.00	29.801 
20:30	68.9	68.9	68.9	75	60.6	0	2	270	0.00	29.806 
20:35	68.6	68.6	68.6	74	60.0	1	4	270	0.00	29.806 
20:40	68.4	68.4	68.4	73	59.4	0	3	270	0.00	29.806 
20:45	68.4	68.4	68.4	73	59.4	0	2	270	0.00	29.812 
20:50	68.3	68.3	68.3	74	59.7	0	1	270	0.00	29.812 
20:55	68.1	68.1	68.1	75	59.9	0	1	270	0.00	29.812 
21:00	67.8	67.8	67.8	75	59.6	0	0	---	0.00	29.815 
21:05	67.6	67.6	67.6	77	60.1	0	1	270	0.00	29.815 
21:10	67.3	67.3	67.3	77	59.8	0	2	270	0.00	29.815 
21:15	67.1	67.1	67.1	78	60.0	0	2	270	0.00	29.820 
21:20	66.9	66.9	66.9	78	59.8	0	1	270	0.00	29.820 
21:25	66.9	66.9	66.9	78	59.8	0	1	270	0.00	29.820 
21:30	66.8	66.8	66.8	78	59.7	0	1	270	0.00	29.822 
21:35	66.6	66.6	66.6	79	59.9	0	1	270	0.00	29.822 
21:40	66.4	66.4	66.4	79	59.7	0	1	270	0.00	29.822 
21:45	66.4	66.4	66.4	79	59.7	0	1	270	0.00	29.829 
21:50	66.4	66.4	66.4	79	59.7	0	1	270	0.00	29.829 
21:55	66.4	66.4	66.4	79	59.7	0	1	270	0.00	29.829 
22:00	66.6	66.6	66.6	79	59.9	0	1	270	0.00	29.830 
22:05	66.6	66.6	66.6	79	59.9	0	1	270	0.00	29.830 
22:10	66.6	66.6	66.6	78	59.5	0	1	270	0.00	29.830 
22:15	66.4	66.4	66.4	78	59.3	0	4	270	0.00	29.835 
22:20	66.6	66.6	66.6	77	59.2	0	3	0	0.00	29.835 
22:25	66.8	66.8	66.8	77	59.3	0	2	0	0.00	29.835 
22:30	66.8	66.8	66.8	77	59.3	0	3	270	0.00	29.840 
22:35	66.6	66.6	66.6	77	59.2	0	2	248	0.00	29.840 
22:40	66.4	66.4	66.4	77	59.0	1	4	292	0.00	29.840 
22:45	66.4	66.4	66.4	77	59.0	0	3	248	0.00	29.847 
22:50	66.4	66.4	66.4	77	59.0	1	4	270	0.00	29.847 
22:55	66.4	66.4	66.4	77	59.0	1	4	270	0.00	29.847 
23:00	66.4	66.4	66.4	76	58.6	2	5	270	0.00	29.857 
23:05	66.3	66.3	66.3	75	58.1	1	5	292	0.00	29.857 
23:10	66.0	66.0	66.0	75	57.8	1	6	292	0.00	29.857 
23:15	65.6	65.6	65.6	73	56.7	1	4	270	0.00	29.856 
23:20	65.3	65.3	65.3	71	55.6	1	6	292	0.00	29.856 
23:25	65.0	65.0	65.0	69	54.6	1	4	270	0.00	29.856 
23:30	64.7	64.7	64.7	67	53.5	1	4	270	0.00	29.857 
23:35	64.5	64.5	64.5	66	52.9	1	3	248	0.00	29.857 
23:40	64.2	64.2	64.2	66	52.6	0	3	248	0.00	29.857 
23:45	64.0	64.0	64.0	66	52.4	1	4	292	0.00	29.856 
23:50	63.7	63.7	63.7	67	52.5	1	3	292	0.00	29.856 
23:55	63.4	63.4	63.4	67	52.2	1	4	292	0.00	29.856 

CoCoRaHS
IN-AL-39
A2 Web Hosting
Creative Commons License
GoDaddy
search engine by freefind advanced

loaded 2018-11-19 11:26:29 • last modified 2010-11-18 10:43:29
Privacy PolicyDisclaimer
• wx.awcolley.com is powered by PmWiki v.2002016 •
• all content (unless otherwise noted) © 2018 A W Colley